Shun Cheng — BBUL — position and weather

sailwx.info

Track history (hours):
 
Tides and Currents Weather Stations Pressure Air Temp Water Temp Dewpoint Dewpoint Depression Visibility Wind Speed Wind Dir Waves Ship Positions

Shun Cheng

Last reported at 2014-Nov-28 18:33 UTC. Time now 2014-Nov-28 19:24 UTC.
Position N 35°15' E 139°46'.

Length 128 m; draft 6.3 m.

Type: Cargo ship. MMSI: 412949000.

Date/timePositionNaut miles runAvg speedWind from/ knotsBaromVisibWave heightAir tempDewpointWater temp
2014-Nov-28 18:33N 35°15' E 139°46'1110.7
2014-Nov-28 17:33N 35°26' E 139°45'9 9.3
2014-Nov-28 16:33N 35°35' E 139°48'3 2.8
2014-Nov-28 15:33N 35°37' E 139°46'0 0.0
2014-Nov-28 14:33N 35°37' E 139°46'0 0.0
2014-Nov-28 13:33N 35°37' E 139°46'0 0.0
2014-Nov-28 12:21N 35°37' E 139°46'0 0.0
2014-Nov-28 11:09N 35°37' E 139°46'3 3.6
2014-Nov-28 10:23N 35°35' E 139°48'8 9.5
2014-Nov-28 09:33N 35°27' E 139°49'8 7.2
2014-Nov-28 08:31N 35°27' E 139°40'0 0.0
2014-Nov-28 07:31N 35°27' E 139°40'0 0.0
2014-Nov-28 06:31N 35°27' E 139°40'0 0.0
2014-Nov-28 05:31N 35°27' E 139°40'0 0.0
2014-Nov-28 04:31N 35°27' E 139°40'0 0.2
2014-Nov-28 03:33N 35°27' E 139°41'8 7.6
2014-Nov-28 02:33N 35°20' E 139°43'1111.1
2014-Nov-28 01:33N 35°09' E 139°46'243 6.2
2014-Nov-26 10:32N 34°10' E 134°59'1313.5
2014-Nov-26 09:32N 34°23' E 135°02'1414.1
2014-Nov-26 08:33N 34°33' E 135°14'6 6.4
2014-Nov-26 07:33N 34°40' E 135°14'0 0.0
2014-Nov-26 06:24N 34°40' E 135°14'0 0.0
2014-Nov-26 05:30N 34°40' E 135°14'0 0.0
2014-Nov-26 04:30N 34°40' E 135°14'1 0.8
2014-Nov-26 03:33N 34°40' E 135°15'9 8.9
2014-Nov-26 02:33N 34°39' E 135°26'0 0.1
2014-Nov-26 01:23N 34°39' E 135°26'0 0.0
2014-Nov-26 00:23N 34°39' E 135°26'0 0.1
2014-Nov-25 23:33N 34°39' E 135°26'7 6.7
2014-Nov-25 22:34N 34°35' E 135°19'1312.7
2014-Nov-25 21:33N 34°26' E 135°08'1212.3
2014-Nov-25 20:33N 34°16' E 134°59'1212.2
2014-Nov-25 19:33N 34°04' E 134°58'  
2014-Nov-23 12:20N 31°06' E 122°27'7 9.4
2014-Nov-23 11:33N 31°06' E 122°18'1413.6
2014-Nov-23 10:34N 31°14' E 122°05'1414.5
2014-Nov-23 09:33N 31°17' E 121°48'1312.6
2014-Nov-23 08:33N 31°23' E 121°35'1111.1
2014-Nov-23 07:33N 31°30' E 121°25'1111.1
2014-Nov-23 06:33N 31°37' E 121°15'9 9.1
2014-Nov-23 05:33N 31°43' E 121°07'9 8.6
2014-Nov-23 04:33N 31°47' E 120°58'1010.3
2014-Nov-23 03:33N 31°56' E 120°52'2 1.8
2014-Nov-23 02:15N 31°58' E 120°52'0 0.0
2014-Nov-23 01:33N 31°58' E 120°52'0 0.0
2014-Nov-23 00:30N 31°58' E 120°52'0 0.0
2014-Nov-22 23:31N 31°58' E 120°52'0 0.0
2014-Nov-22 22:33N 31°58' E 120°52'0 0.0
2014-Nov-22 21:33N 31°58' E 120°52'0 0.0
2014-Nov-22 20:30N 31°58' E 120°52'0 0.0
2014-Nov-22 19:27N 31°58' E 120°52'0 0.0
2014-Nov-22 18:33N 31°58' E 120°52'0 0.0
2014-Nov-22 17:33N 31°58' E 120°52'0 0.0
2014-Nov-22 16:30N 31°58' E 120°52'0 0.0
2014-Nov-22 15:30N 31°58' E 120°52'0 0.0
2014-Nov-22 14:33N 31°58' E 120°52'0 0.4
2014-Nov-22 13:33N 31°58' E 120°51'1010.2
2014-Nov-22 12:33N 31°60' E 120°39'1110.7
2014-Nov-22 11:33N 32°01' E 120°27'3 3.1
2014-Nov-22 10:34N 31°58' E 120°25'0 0.0
2014-Nov-22 09:33N 31°58' E 120°25'0 0.0
2014-Nov-22 08:30N 31°58' E 120°25'0 0.0
2014-Nov-22 07:30N 31°58' E 120°25'0 0.0
2014-Nov-22 05:30N 31°58' E 120°25'0 0.0
2014-Nov-22 04:30N 31°58' E 120°25'0 0.0
2014-Nov-22 03:30N 31°58' E 120°25'0 0.0
2014-Nov-22 02:30N 31°58' E 120°25'0 0.0
2014-Nov-22 01:33N 31°58' E 120°25'0 0.0
2014-Nov-22 00:30N 31°58' E 120°25'0 0.0
2014-Nov-21 23:30N 31°58' E 120°25'0 0.0
2014-Nov-21 22:30N 31°58' E 120°25'0 0.0
2014-Nov-21 21:33N 31°58' E 120°25'0 0.0
2014-Nov-21 20:30N 31°58' E 120°25'0 0.0
2014-Nov-21 19:33N 31°58' E 120°25'0 0.0
2014-Nov-21 18:30N 31°58' E 120°25'0 0.0
2014-Nov-21 17:33N 31°58' E 120°25'0 0.0
2014-Nov-21 16:33N 31°58' E 120°25'0 0.0
2014-Nov-21 15:33N 31°58' E 120°25'0 0.0
2014-Nov-21 14:33N 31°58' E 120°25'0 0.0
2014-Nov-21 13:33N 31°58' E 120°25'0 0.3
2014-Nov-21 12:34N 31°58' E 120°25'1110.8
2014-Nov-21 11:33N 31°56' E 120°12'1212.2
2014-Nov-21 10:34N 31°60' E 119°59'1612.0
2014-Nov-21 09:13N 32°15' E 119°52'  
2014-Nov-18 23:33N 32°16' E 119°52'1111.1
2014-Nov-18 22:33N 32°06' E 119°55'1010.1
2014-Nov-18 21:33N 31°58' E 120°03'1010.3
2014-Nov-18 20:33N 31°56' E 120°15'1110.8
2014-Nov-18 19:33N 32°03' E 120°25'  
Track history (hours):
 
Tides and Currents Weather Stations Pressure Air Temp Water Temp Dewpoint Dewpoint Depression Visibility Wind Speed Wind Dir Waves Ship Positions

Shun Cheng

Last reported at 2014-Nov-28 18:33 UTC. Time now 2014-Nov-28 19:24 UTC.
Position N 35°15' E 139°46'.

Length 128 m; draft 6.3 m.

Type: Cargo ship. MMSI: 412949000.

Date/timePositionNaut miles runAvg speedWind from/ knotsBaromVisibWave heightAir tempDewpointWater temp
2014-Nov-28 18:33N 35°15' E 139°46'1110.7
2014-Nov-28 17:33N 35°26' E 139°45'9 9.3
2014-Nov-28 16:33N 35°35' E 139°48'3 2.8
2014-Nov-28 15:33N 35°37' E 139°46'0 0.0
2014-Nov-28 14:33N 35°37' E 139°46'0 0.0
2014-Nov-28 13:33N 35°37' E 139°46'0 0.0
2014-Nov-28 12:21N 35°37' E 139°46'0 0.0
2014-Nov-28 11:09N 35°37' E 139°46'3 3.6
2014-Nov-28 10:23N 35°35' E 139°48'8 9.5
2014-Nov-28 09:33N 35°27' E 139°49'8 7.2
2014-Nov-28 08:31N 35°27' E 139°40'0 0.0
2014-Nov-28 07:31N 35°27' E 139°40'0 0.0
2014-Nov-28 06:31N 35°27' E 139°40'0 0.0
2014-Nov-28 05:31N 35°27' E 139°40'0 0.0
2014-Nov-28 04:31N 35°27' E 139°40'0 0.2
2014-Nov-28 03:33N 35°27' E 139°41'8 7.6
2014-Nov-28 02:33N 35°20' E 139°43'1111.1
2014-Nov-28 01:33N 35°09' E 139°46'243 6.2
2014-Nov-26 10:32N 34°10' E 134°59'1313.5
2014-Nov-26 09:32N 34°23' E 135°02'1414.1
2014-Nov-26 08:33N 34°33' E 135°14'6 6.4
2014-Nov-26 07:33N 34°40' E 135°14'0 0.0
2014-Nov-26 06:24N 34°40' E 135°14'0 0.0
2014-Nov-26 05:30N 34°40' E 135°14'0 0.0
2014-Nov-26 04:30N 34°40' E 135°14'1 0.8
2014-Nov-26 03:33N 34°40' E 135°15'9 8.9
2014-Nov-26 02:33N 34°39' E 135°26'0 0.1
2014-Nov-26 01:23N 34°39' E 135°26'0 0.0
2014-Nov-26 00:23N 34°39' E 135°26'0 0.1
2014-Nov-25 23:33N 34°39' E 135°26'7 6.7
2014-Nov-25 22:34N 34°35' E 135°19'1312.7
2014-Nov-25 21:33N 34°26' E 135°08'1212.3
2014-Nov-25 20:33N 34°16' E 134°59'1212.2
2014-Nov-25 19:33N 34°04' E 134°58'  
2014-Nov-23 12:20N 31°06' E 122°27'7 9.4
2014-Nov-23 11:33N 31°06' E 122°18'1413.6
2014-Nov-23 10:34N 31°14' E 122°05'1414.5
2014-Nov-23 09:33N 31°17' E 121°48'1312.6
2014-Nov-23 08:33N 31°23' E 121°35'1111.1
2014-Nov-23 07:33N 31°30' E 121°25'1111.1
2014-Nov-23 06:33N 31°37' E 121°15'9 9.1
2014-Nov-23 05:33N 31°43' E 121°07'9 8.6
2014-Nov-23 04:33N 31°47' E 120°58'1010.3
2014-Nov-23 03:33N 31°56' E 120°52'2 1.8
2014-Nov-23 02:15N 31°58' E 120°52'0 0.0
2014-Nov-23 01:33N 31°58' E 120°52'0 0.0
2014-Nov-23 00:30N 31°58' E 120°52'0 0.0
2014-Nov-22 23:31N 31°58' E 120°52'0 0.0
2014-Nov-22 22:33N 31°58' E 120°52'0 0.0
2014-Nov-22 21:33N 31°58' E 120°52'0 0.0
2014-Nov-22 20:30N 31°58' E 120°52'0 0.0
2014-Nov-22 19:27N 31°58' E 120°52'0 0.0
2014-Nov-22 18:33N 31°58' E 120°52'0 0.0
2014-Nov-22 17:33N 31°58' E 120°52'0 0.0
2014-Nov-22 16:30N 31°58' E 120°52'0 0.0
2014-Nov-22 15:30N 31°58' E 120°52'0 0.0
2014-Nov-22 14:33N 31°58' E 120°52'0 0.4
2014-Nov-22 13:33N 31°58' E 120°51'1010.2
2014-Nov-22 12:33N 31°60' E 120°39'1110.7
2014-Nov-22 11:33N 32°01' E 120°27'3 3.1
2014-Nov-22 10:34N 31°58' E 120°25'0 0.0
2014-Nov-22 09:33N 31°58' E 120°25'0 0.0
2014-Nov-22 08:30N 31°58' E 120°25'0 0.0
2014-Nov-22 07:30N 31°58' E 120°25'0 0.0
2014-Nov-22 05:30N 31°58' E 120°25'0 0.0
2014-Nov-22 04:30N 31°58' E 120°25'0 0.0
2014-Nov-22 03:30N 31°58' E 120°25'0 0.0
2014-Nov-22 02:30N 31°58' E 120°25'0 0.0
2014-Nov-22 01:33N 31°58' E 120°25'0 0.0
2014-Nov-22 00:30N 31°58' E 120°25'0 0.0
2014-Nov-21 23:30N 31°58' E 120°25'0 0.0
2014-Nov-21 22:30N 31°58' E 120°25'0 0.0
2014-Nov-21 21:33N 31°58' E 120°25'0 0.0
2014-Nov-21 20:30N 31°58' E 120°25'0 0.0
2014-Nov-21 19:33N 31°58' E 120°25'0 0.0
2014-Nov-21 18:30N 31°58' E 120°25'0 0.0
2014-Nov-21 17:33N 31°58' E 120°25'0 0.0
2014-Nov-21 16:33N 31°58' E 120°25'0 0.0
2014-Nov-21 15:33N 31°58' E 120°25'0 0.0
2014-Nov-21 14:33N 31°58' E 120°25'0 0.0
2014-Nov-21 13:33N 31°58' E 120°25'0 0.3
2014-Nov-21 12:34N 31°58' E 120°25'1110.8
2014-Nov-21 11:33N 31°56' E 120°12'1212.2
2014-Nov-21 10:34N 31°60' E 119°59'1612.0
2014-Nov-21 09:13N 32°15' E 119°52'  
2014-Nov-18 23:33N 32°16' E 119°52'1111.1
2014-Nov-18 22:33N 32°06' E 119°55'1010.1
2014-Nov-18 21:33N 31°58' E 120°03'1010.3
2014-Nov-18 20:33N 31°56' E 120°15'1110.8
2014-Nov-18 19:33N 32°03' E 120°25'  

Dump ship's entire track history